createdAt,value
2018-08-17T00:02:22.711Z,15.27
2018-08-17T00:04:57.433Z,14.30
2018-08-17T00:07:31.893Z,15.77
2018-08-17T00:10:06.669Z,15.27
2018-08-17T00:12:41.236Z,15.10
2018-08-17T00:15:15.773Z,14.40
2018-08-17T00:17:50.383Z,15.13
2018-08-17T00:20:25.076Z,15.33
2018-08-17T00:22:59.689Z,15.47
2018-08-17T00:25:46.264Z,15.43
2018-08-17T00:28:20.947Z,15.90
2018-08-17T00:30:55.468Z,15.63
2018-08-17T00:33:30.433Z,15.57
2018-08-17T00:36:05.157Z,16.30
2018-08-17T00:38:39.792Z,15.33
2018-08-17T00:41:14.381Z,17.33
2018-08-17T00:43:54.621Z,16.50
2018-08-17T00:49:41.715Z,15.87
2018-08-17T00:52:16.330Z,16.63
2018-08-17T00:54:51.126Z,17.17
2018-08-17T00:57:25.658Z,16.53
2018-08-17T01:00:00.312Z,16.77
2018-08-17T01:02:42.269Z,16.63
2018-08-17T01:05:30.528Z,16.50
2018-08-17T01:08:11.096Z,15.70
2018-08-17T01:10:45.520Z,16.80
2018-08-17T01:13:20.265Z,17.00
2018-08-17T01:15:54.923Z,15.43
2018-08-17T01:18:29.622Z,15.53
2018-08-17T01:21:04.182Z,16.13
2018-08-17T01:23:38.932Z,16.13
2018-08-17T01:26:13.561Z,15.40
2018-08-17T01:28:48.124Z,15.20
2018-08-17T01:31:22.856Z,16.70
2018-08-17T01:33:57.360Z,16.43
2018-08-17T01:36:32.133Z,15.33
2018-08-17T01:39:08.270Z,14.83
2018-08-17T01:41:42.893Z,14.97
2018-08-17T01:44:17.397Z,15.87
2018-08-17T01:46:52.061Z,14.40
2018-08-17T01:49:26.569Z,14.87
2018-08-17T01:52:01.317Z,15.90
2018-08-17T01:54:36.130Z,15.10
2018-08-17T01:57:10.752Z,14.60
2018-08-17T01:59:45.845Z,14.40
2018-08-17T02:02:20.359Z,13.83
2018-08-17T02:04:54.920Z,14.93
2018-08-17T02:07:29.642Z,13.80
2018-08-17T02:10:05.161Z,14.50
2018-08-17T02:12:39.911Z,14.77
2018-08-17T02:15:14.544Z,12.93
2018-08-17T02:17:49.142Z,13.43
2018-08-17T02:20:23.795Z,14.30
2018-08-17T02:22:58.382Z,14.10
2018-08-17T02:25:33.011Z,15.37
2018-08-17T02:28:07.632Z,14.13
2018-08-17T02:30:42.285Z,14.37
2018-08-17T02:33:17.008Z,16.43
2018-08-17T02:35:51.643Z,15.50
2018-08-17T02:38:26.293Z,15.13
2018-08-17T02:41:01.031Z,16.63
2018-08-17T02:43:35.693Z,17.03
2018-08-17T02:46:10.289Z,16.00
2018-08-17T02:48:45.001Z,17.27
2018-08-17T02:51:19.596Z,19.20
2018-08-17T02:53:54.161Z,19.37
2018-08-17T02:56:28.809Z,19.67
2018-08-17T02:59:03.408Z,20.67
2018-08-17T03:01:38.129Z,20.67
2018-08-17T03:04:12.720Z,23.07
2018-08-17T03:06:47.373Z,22.53
2018-08-17T03:09:22.078Z,24.40
2018-08-17T03:11:56.689Z,24.97
2018-08-17T03:14:31.312Z,23.53
2018-08-17T03:17:05.848Z,24.37
2018-08-17T03:19:40.499Z,23.65
2018-08-17T03:22:15.189Z,23.27
2018-08-17T03:24:49.846Z,22.30
2018-08-17T03:27:24.420Z,22.17
2018-08-17T03:29:59.023Z,21.23
2018-08-17T03:32:33.653Z,21.10
2018-08-17T03:35:08.320Z,19.90
2018-08-17T03:37:42.932Z,19.93
2018-08-17T03:40:17.677Z,20.23
2018-08-17T03:42:52.321Z,19.63
2018-08-17T03:45:26.864Z,20.20
2018-08-17T03:48:01.556Z,19.90
2018-08-17T03:50:36.174Z,17.73
2018-08-17T03:53:10.852Z,18.33
2018-08-17T03:55:45.337Z,17.60
2018-08-17T03:58:19.884Z,17.63
2018-08-17T04:00:54.757Z,18.20
2018-08-17T04:03:29.337Z,18.20
2018-08-17T04:06:03.888Z,18.40
2018-08-17T04:08:38.772Z,19.17
2018-08-17T04:11:13.433Z,17.60
2018-08-17T04:13:48.064Z,16.40
2018-08-17T04:16:22.856Z,18.57
2018-08-17T04:19:00.429Z,15.70
2018-08-17T04:21:35.043Z,15.60
2018-08-17T04:24:28.520Z,15.73
2018-08-17T04:27:03.736Z,15.03
2018-08-17T04:29:38.428Z,14.73
2018-08-17T04:32:13.007Z,15.50
2018-08-17T04:34:47.575Z,14.53
2018-08-17T04:37:22.237Z,12.83
2018-08-17T04:39:57.096Z,14.13
2018-08-17T04:42:31.733Z,13.33
2018-08-17T04:45:06.916Z,12.75
2018-08-17T04:47:41.244Z,11.83
2018-08-17T04:50:15.696Z,11.63
2018-08-17T04:52:50.280Z,11.80
2018-08-17T04:55:24.748Z,11.33
2018-08-17T04:58:00.165Z,10.23
2018-08-17T05:00:34.745Z,10.20
2018-08-17T05:03:09.391Z,11.27
2018-08-17T05:05:43.982Z,10.73
2018-08-17T05:08:18.746Z,10.07
2018-08-17T05:10:53.325Z,9.87
2018-08-17T05:13:27.933Z,9.70
2018-08-17T05:16:02.516Z,8.90
2018-08-17T05:18:37.173Z,8.20
2018-08-17T05:21:11.797Z,8.63
2018-08-17T05:23:46.354Z,8.40
2018-08-17T05:26:21.008Z,7.80
2018-08-17T05:28:55.528Z,8.37
2018-08-17T05:31:30.092Z,7.23
2018-08-17T05:34:04.802Z,8.53
2018-08-17T05:36:39.512Z,7.13
2018-08-17T05:39:14.111Z,7.63
2018-08-17T05:41:48.804Z,8.03
2018-08-17T05:44:23.427Z,6.87
2018-08-17T05:46:58.080Z,5.80
2018-08-17T05:49:32.718Z,5.77
2018-08-17T05:55:06.289Z,5.23
2018-08-17T05:57:41.004Z,4.70
2018-08-17T06:00:15.652Z,4.92
2018-08-17T06:02:50.327Z,5.33
2018-08-17T06:05:25.284Z,5.03
2018-08-17T06:07:59.981Z,4.80
2018-08-17T06:10:34.925Z,4.77
2018-08-17T06:13:09.495Z,4.77
2018-08-17T06:15:44.024Z,5.53
2018-08-17T06:18:18.713Z,5.57
2018-08-17T06:20:53.347Z,7.37
2018-08-17T06:23:27.945Z,10.23
2018-08-17T06:26:02.786Z,8.70
2018-08-17T06:28:37.452Z,9.10
2018-08-17T06:31:32.149Z,6.67
2018-08-17T06:34:06.847Z,6.10
2018-08-17T06:36:41.614Z,6.63
2018-08-17T06:39:16.181Z,7.17
2018-08-17T06:41:50.801Z,7.63
2018-08-17T06:44:25.484Z,8.20
2018-08-17T06:47:00.249Z,9.67
2018-08-17T06:49:34.789Z,9.87
2018-08-17T06:52:09.411Z,10.53
2018-08-17T06:54:44.300Z,10.23
2018-08-17T06:57:18.835Z,10.07
2018-08-17T06:59:53.361Z,10.40
2018-08-17T07:02:28.064Z,8.60
2018-08-17T07:05:02.622Z,8.63
2018-08-17T07:07:37.472Z,7.13
2018-08-17T07:10:13.150Z,6.93
2018-08-17T07:12:47.980Z,7.07
2018-08-17T07:15:22.628Z,6.70
2018-08-17T07:18:15.549Z,8.20
2018-08-17T07:20:50.058Z,6.77
2018-08-17T07:23:24.576Z,7.20
2018-08-17T07:25:59.272Z,6.83
2018-08-17T07:28:34.016Z,6.70
2018-08-17T07:31:08.593Z,6.73
2018-08-17T07:33:43.930Z,7.30
2018-08-17T07:36:18.650Z,7.23
2018-08-17T07:38:53.589Z,6.87
2018-08-17T07:41:28.157Z,6.75
2018-08-17T07:44:03.225Z,7.20
2018-08-17T07:46:58.360Z,7.43
2018-08-17T07:49:33.567Z,6.73
2018-08-17T07:52:08.293Z,6.70
2018-08-17T07:54:45.153Z,6.83
2018-08-17T07:57:19.849Z,5.95
2018-08-17T07:59:54.244Z,5.93
2018-08-17T08:02:28.677Z,5.95
2018-08-17T08:05:03.145Z,5.93
2018-08-17T08:07:37.828Z,6.07
2018-08-17T08:10:12.614Z,6.70
2018-08-17T08:12:47.347Z,6.67
2018-08-17T08:15:22.017Z,6.67
2018-08-17T08:17:56.900Z,7.23
2018-08-17T08:20:33.896Z,7.70
2018-08-17T08:23:19.705Z,6.93
2018-08-17T08:25:54.699Z,6.60
2018-08-17T08:28:34.420Z,6.07
2018-08-17T08:31:09.096Z,6.10
2018-08-17T08:36:43.075Z,5.73
2018-08-17T08:39:18.592Z,6.00
2018-08-17T08:41:53.161Z,5.50
2018-08-17T08:44:31.792Z,5.47
2018-08-17T08:47:06.367Z,5.30
2018-08-17T08:49:45.644Z,5.77
2018-08-17T08:52:20.265Z,5.90
2018-08-17T08:57:53.818Z,6.43
2018-08-17T09:00:28.427Z,7.13
2018-08-17T09:03:10.580Z,8.47
2018-08-17T09:05:45.085Z,9.00
2018-08-17T09:08:19.863Z,9.00
2018-08-17T09:10:54.432Z,8.88
2018-08-17T09:13:28.988Z,8.87
2018-08-17T09:16:03.618Z,8.60
2018-08-17T09:18:38.297Z,7.07
2018-08-17T09:21:12.954Z,6.67
2018-08-17T09:23:47.517Z,6.60
2018-08-17T09:26:22.077Z,6.73
2018-08-17T09:28:56.677Z,5.23
2018-08-17T09:31:31.252Z,6.20
2018-08-17T09:34:13.236Z,6.23
2018-08-17T09:36:47.659Z,5.30
2018-08-17T09:39:22.152Z,6.13
2018-08-17T09:41:56.957Z,5.97
2018-08-17T09:44:31.427Z,4.90
2018-08-17T09:47:06.079Z,4.63
2018-08-17T09:49:40.760Z,4.57
2018-08-17T09:52:15.204Z,4.50
2018-08-17T09:54:49.844Z,4.57
2018-08-17T09:57:24.450Z,4.00
2018-08-17T09:59:58.932Z,4.77
2018-08-17T10:02:38.845Z,6.17
2018-08-17T10:05:19.172Z,12.67
2018-08-17T10:07:59.119Z,14.00
2018-08-17T10:10:33.713Z,16.37
2018-08-17T10:13:08.258Z,16.77
2018-08-17T10:15:42.783Z,15.67
2018-08-17T10:18:17.581Z,13.93
2018-08-17T10:20:52.282Z,12.33
2018-08-17T10:23:26.861Z,12.57
2018-08-17T10:26:02.397Z,12.47
2018-08-17T10:28:37.283Z,11.33
2018-08-17T10:31:12.536Z,11.37
2018-08-17T10:33:48.465Z,12.37
2018-08-17T10:36:22.918Z,13.20
2018-08-17T10:38:57.581Z,12.87
2018-08-17T10:41:32.274Z,13.77
2018-08-17T10:44:06.948Z,16.67
2018-08-17T10:46:53.881Z,16.17
2018-08-17T10:52:27.313Z,21.80
2018-08-17T10:55:02.006Z,21.23
2018-08-17T10:57:36.468Z,23.07
2018-08-17T11:00:14.573Z,21.57
2018-08-17T11:02:49.061Z,21.43
2018-08-17T11:05:23.976Z,21.27
2018-08-17T11:07:58.489Z,20.23
2018-08-17T11:10:33.173Z,19.63
2018-08-17T11:13:07.813Z,18.57
2018-08-17T11:15:42.332Z,20.67
2018-08-17T11:18:16.860Z,20.67
2018-08-17T11:20:52.656Z,19.47
2018-08-17T11:23:27.285Z,21.23
2018-08-17T11:26:02.164Z,19.67
2018-08-17T11:31:37.160Z,20.10
2018-08-17T11:34:12.265Z,19.43
2018-08-17T11:36:46.954Z,17.87
2018-08-17T11:39:21.548Z,16.77
2018-08-17T11:41:56.129Z,17.17
2018-08-17T11:44:30.796Z,17.97
2018-08-17T11:47:05.472Z,18.17
2018-08-17T11:49:40.150Z,20.67
2018-08-17T11:52:14.776Z,20.33
2018-08-17T11:54:49.340Z,18.80
2018-08-17T11:57:23.999Z,18.93
2018-08-17T11:59:58.585Z,20.33
2018-08-17T12:02:33.333Z,21.50
2018-08-17T12:05:08.673Z,24.47
2018-08-17T12:07:44.084Z,22.23
2018-08-17T12:10:18.557Z,24.33
2018-08-17T12:12:53.283Z,23.70
2018-08-17T12:15:27.860Z,21.13
2018-08-17T12:18:02.581Z,18.50
2018-08-17T12:20:37.289Z,19.17
2018-08-17T12:23:11.860Z,20.80
2018-08-17T12:25:51.377Z,19.92
2018-08-17T12:28:27.662Z,19.13
2018-08-17T12:31:02.201Z,17.87
2018-08-17T12:33:37.001Z,17.60
2018-08-17T12:36:11.608Z,18.33
2018-08-17T12:38:46.229Z,19.27
2018-08-17T12:41:20.813Z,20.57
2018-08-17T12:43:55.465Z,20.97
2018-08-17T12:46:30.134Z,22.10
2018-08-17T12:49:04.717Z,22.90
2018-08-17T12:51:39.231Z,23.03
2018-08-17T12:54:17.889Z,26.37
2018-08-17T12:56:53.181Z,28.40
2018-08-17T12:59:27.918Z,28.70
2018-08-17T13:02:02.416Z,29.47
2018-08-17T13:04:37.112Z,26.77
2018-08-17T13:07:11.841Z,28.53
2018-08-17T13:09:46.570Z,25.83
2018-08-17T13:12:21.163Z,29.07
2018-08-17T13:14:55.769Z,28.90
2018-08-17T13:17:46.153Z,28.70
2018-08-17T13:20:21.062Z,27.77
2018-08-17T13:22:55.713Z,26.80
2018-08-17T13:25:30.421Z,21.80
2018-08-17T13:28:04.964Z,18.70
2018-08-17T13:30:39.451Z,17.60
2018-08-17T13:33:14.085Z,15.50
2018-08-17T13:35:48.564Z,15.93
2018-08-17T13:38:23.292Z,15.13
2018-08-17T13:40:57.724Z,16.03
2018-08-17T13:43:32.332Z,16.90
2018-08-17T13:46:07.188Z,13.23
2018-08-17T13:48:41.693Z,12.57
2018-08-17T13:51:21.073Z,11.65
2018-08-17T13:53:58.669Z,10.33
2018-08-17T13:59:32.007Z,10.30
2018-08-17T14:05:06.688Z,10.60
2018-08-17T14:07:41.384Z,11.13
2018-08-17T14:13:19.409Z,8.97
2018-08-17T14:15:54.172Z,9.93
2018-08-17T14:18:28.809Z,9.30
2018-08-17T14:21:03.233Z,10.00
2018-08-17T14:23:37.773Z,11.70
2018-08-17T14:26:12.753Z,12.40
2018-08-17T14:28:47.850Z,11.93
2018-08-17T14:31:22.294Z,12.63
2018-08-17T14:33:56.795Z,12.40
2018-08-17T14:36:31.492Z,11.23
2018-08-17T14:39:06.808Z,11.03
2018-08-17T14:41:55.942Z,9.77
2018-08-17T14:44:30.993Z,10.60
2018-08-17T14:47:05.761Z,7.70
2018-08-17T14:49:40.279Z,6.80
2018-08-17T14:52:14.865Z,6.27
2018-08-17T14:54:49.352Z,6.10
2018-08-17T14:57:24.059Z,5.13
2018-08-17T14:59:58.545Z,4.30
2018-08-17T15:02:32.941Z,4.23
2018-08-17T15:05:08.891Z,3.70
2018-08-17T15:07:43.589Z,3.20
2018-08-17T15:10:18.100Z,4.87
2018-08-17T15:12:52.734Z,3.50
2018-08-17T15:15:27.187Z,2.93
2018-08-17T15:18:02.261Z,3.40
2018-08-17T15:20:36.590Z,3.43
2018-08-17T15:23:11.261Z,3.30
2018-08-17T15:25:45.720Z,4.03
2018-08-17T15:28:20.297Z,4.17
2018-08-17T15:30:54.779Z,4.50
2018-08-17T15:33:29.420Z,5.20
2018-08-17T15:36:04.052Z,4.37
2018-08-17T15:38:38.568Z,3.60
2018-08-17T15:41:12.951Z,5.10
2018-08-17T15:43:47.308Z,5.23
2018-08-17T15:46:21.699Z,5.70
2018-08-17T15:48:57.040Z,4.63
2018-08-17T15:51:31.581Z,4.87
2018-08-17T15:54:06.040Z,6.30
2018-08-17T15:56:40.598Z,5.53
2018-08-17T15:59:15.205Z,5.73
2018-08-17T16:01:49.765Z,6.43
2018-08-17T16:04:24.388Z,6.90
2018-08-17T16:06:59.024Z,6.73
2018-08-17T16:09:33.655Z,8.27
2018-08-17T16:21:05.340Z,6.83
2018-08-17T16:23:43.048Z,6.63
2018-08-17T16:26:20.930Z,6.67
2018-08-17T16:28:56.203Z,7.67
2018-08-17T16:34:30.220Z,6.13
2018-08-17T16:37:04.796Z,6.57
2018-08-17T16:39:44.716Z,6.10
2018-08-17T16:42:25.365Z,6.17
2018-08-17T16:45:00.196Z,7.40
2018-08-17T16:47:34.905Z,6.87
2018-08-17T16:50:09.921Z,5.43
2018-08-17T16:52:44.522Z,4.50
2018-08-17T16:55:19.216Z,4.63
2018-08-17T16:57:53.785Z,4.00
2018-08-17T17:00:28.545Z,4.30
2018-08-17T17:03:03.197Z,3.90
2018-08-17T17:05:37.837Z,4.37
2018-08-17T17:08:12.559Z,4.40
2018-08-17T17:10:47.201Z,4.60
2018-08-17T17:13:21.863Z,4.60
2018-08-17T17:15:56.820Z,4.20
2018-08-17T17:18:31.429Z,4.53
2018-08-17T17:21:06.073Z,4.47
2018-08-17T17:23:46.873Z,4.30
2018-08-17T17:29:21.844Z,3.70
2018-08-17T17:31:56.959Z,3.10
2018-08-17T17:34:31.578Z,3.67
2018-08-17T17:37:06.216Z,3.60
2018-08-17T17:39:40.688Z,3.40
2018-08-17T17:42:15.272Z,3.03
2018-08-17T17:44:50.018Z,3.50
2018-08-17T17:47:24.644Z,3.53
2018-08-17T17:49:59.245Z,3.43
2018-08-17T17:52:33.725Z,2.80
2018-08-17T17:55:08.201Z,2.87
2018-08-17T17:57:42.780Z,3.63
2018-08-17T18:00:17.464Z,2.97
2018-08-17T18:02:52.160Z,3.10
2018-08-17T18:05:26.712Z,3.03
2018-08-17T18:08:06.873Z,2.67
2018-08-17T18:10:41.505Z,3.13
2018-08-17T18:13:16.152Z,2.70
2018-08-17T18:15:50.760Z,3.20
2018-08-17T18:18:25.365Z,2.87
2018-08-17T18:20:59.956Z,2.63
2018-08-17T18:23:34.560Z,2.83
2018-08-17T18:26:12.571Z,2.70
2018-08-17T18:28:46.984Z,3.20
2018-08-17T18:31:21.583Z,2.53
2018-08-17T18:33:56.011Z,2.50
2018-08-17T18:36:30.844Z,2.53
2018-08-17T18:39:08.049Z,2.97
2018-08-17T18:41:42.613Z,3.27
2018-08-17T18:44:17.085Z,2.43
2018-08-17T18:46:51.720Z,2.60
2018-08-17T18:49:26.458Z,2.63
2018-08-17T18:52:01.144Z,2.63
2018-08-17T18:54:36.068Z,3.50
2018-08-17T18:57:10.470Z,4.03
2018-08-17T18:59:44.949Z,3.30
2018-08-17T19:02:19.517Z,3.03
2018-08-17T19:04:54.158Z,3.00
2018-08-17T19:07:28.720Z,2.73
2018-08-17T19:10:03.264Z,3.57
2018-08-17T19:12:38.050Z,3.30
2018-08-17T19:15:13.369Z,3.60
2018-08-17T19:17:47.961Z,3.27
2018-08-17T19:20:22.568Z,3.20
2018-08-17T19:22:57.144Z,3.50
2018-08-17T19:25:31.779Z,3.13
2018-08-17T19:28:06.495Z,3.47
2018-08-17T19:30:41.229Z,3.17
2018-08-17T19:33:15.895Z,3.77
2018-08-17T19:35:50.580Z,4.27
2018-08-17T19:38:25.149Z,3.37
2018-08-17T19:40:59.691Z,3.57
2018-08-17T19:43:34.253Z,4.30
2018-08-17T19:46:09.092Z,3.90
2018-08-17T19:48:43.481Z,3.93
2018-08-17T19:51:19.109Z,4.13
2018-08-17T19:53:53.685Z,3.57
2018-08-17T19:56:28.233Z,4.37
2018-08-17T19:59:02.892Z,4.23
2018-08-17T20:01:37.584Z,4.65
2018-08-17T20:04:12.345Z,4.37
2018-08-17T20:06:47.005Z,5.27
2018-08-17T20:09:21.731Z,6.10
2018-08-17T20:11:56.716Z,6.10
2018-08-17T20:14:31.389Z,5.50
2018-08-17T20:17:06.169Z,6.23
2018-08-17T20:19:45.958Z,5.80
2018-08-17T20:22:21.943Z,5.87
2018-08-17T20:24:56.756Z,6.20
2018-08-17T20:27:31.231Z,5.80
2018-08-17T20:30:11.036Z,5.20
2018-08-17T20:32:46.331Z,5.53
2018-08-17T20:35:21.341Z,5.20
2018-08-17T20:38:02.849Z,5.20
2018-08-17T20:40:43.352Z,6.67
2018-08-17T20:43:18.037Z,5.50
2018-08-17T20:45:52.612Z,5.50
2018-08-17T20:48:27.521Z,5.08
2018-08-17T20:51:06.637Z,4.58
2018-08-17T20:53:41.146Z,4.50
2018-08-17T20:56:15.771Z,3.97
2018-08-17T20:58:50.417Z,4.27
2018-08-17T21:01:25.108Z,3.67
2018-08-17T21:04:22.075Z,4.20
2018-08-17T21:06:56.651Z,4.20
2018-08-17T21:09:31.169Z,3.97
2018-08-17T21:12:05.832Z,3.90
2018-08-17T21:14:40.348Z,4.20
2018-08-17T21:17:15.060Z,3.70
2018-08-17T21:19:49.753Z,4.03
2018-08-17T21:22:24.752Z,4.40
2018-08-17T21:24:59.281Z,4.60
2018-08-17T21:27:34.056Z,4.83
2018-08-17T21:30:09.117Z,4.87
2018-08-17T21:32:43.792Z,5.20
2018-08-17T21:35:18.498Z,4.57
2018-08-17T21:37:54.222Z,5.00
2018-08-17T21:40:29.773Z,4.90
2018-08-17T21:43:04.188Z,5.07
2018-08-17T21:45:38.757Z,4.53
2018-08-17T21:48:18.336Z,5.23
2018-08-17T21:50:53.228Z,5.17
2018-08-17T21:53:27.904Z,5.53
2018-08-17T21:56:02.433Z,5.87
2018-08-17T21:58:36.869Z,6.13
2018-08-17T22:01:11.385Z,5.40
2018-08-17T22:03:45.869Z,5.87
2018-08-17T22:06:20.477Z,5.87
2018-08-17T22:08:54.900Z,5.70
2018-08-17T22:11:35.084Z,5.30
2018-08-17T22:14:09.532Z,5.53
2018-08-17T22:16:44.216Z,6.40
2018-08-17T22:19:30.181Z,5.97
2018-08-17T22:22:04.685Z,5.63
2018-08-17T22:24:54.997Z,6.00
2018-08-17T22:27:30.008Z,5.67
2018-08-17T22:30:06.389Z,5.83
2018-08-17T22:32:40.890Z,5.50
2018-08-17T22:35:15.671Z,5.80
2018-08-17T22:37:50.500Z,5.70
2018-08-17T22:40:25.200Z,6.20
2018-08-17T22:42:59.752Z,6.20
2018-08-17T22:45:34.349Z,6.47
2018-08-17T22:48:08.851Z,5.90
2018-08-17T22:50:43.482Z,6.40
2018-08-17T22:53:18.057Z,6.80
2018-08-17T22:55:52.701Z,6.50
2018-08-17T22:58:27.993Z,6.17
2018-08-17T23:01:02.731Z,6.63
2018-08-17T23:03:41.600Z,7.77
2018-08-17T23:06:16.393Z,7.50
2018-08-17T23:08:51.172Z,7.13
2018-08-17T23:11:34.320Z,6.77
2018-08-17T23:14:16.012Z,6.78
2018-08-17T23:16:50.625Z,6.80
2018-08-17T23:19:25.362Z,7.80
2018-08-17T23:21:59.963Z,7.63
2018-08-17T23:24:34.694Z,7.57
2018-08-17T23:27:09.372Z,6.73
2018-08-17T23:29:43.933Z,7.63
2018-08-17T23:32:18.461Z,8.50
2018-08-17T23:34:52.908Z,8.73
2018-08-17T23:37:27.438Z,8.77
2018-08-17T23:40:01.958Z,7.87
2018-08-17T23:42:36.580Z,8.77
2018-08-17T23:45:12.721Z,8.50
2018-08-17T23:47:47.511Z,8.90
2018-08-17T23:53:21.407Z,8.97
2018-08-17T23:55:56.192Z,8.25
2018-08-17T23:58:30.701Z,9.23
